Time;durP1;ratioP1;P1;durP2;ratioP2;P2;SDS_P1;SDS_P2;PMS_P1;PMS_P2;Temp;Humidity;BMP_temperature;BMP_pressure;BME280_temperature;BME280_humidity;BME280_pressure;Samples;Min_cycle;Max_cycle;Signal;HPM_P1;HPM_P2
2021/04/12 00:01:25;;;;;;;3.07;0.80;;;3.70;99.90;;;;;;5020784;28;20225;-55
2021/04/12 00:03:59;;;;;;;2.37;0.60;;;3.60;99.90;;;;;;5008377;28;20283;-58
2021/04/12 00:06:31;;;;;;;3.07;0.70;;;3.60;99.90;;;;;;5022672;28;20196;-55
2021/04/12 00:09:05;;;;;;;4.43;0.47;;;3.60;99.90;;;;;;5022361;28;20215;-53
2021/04/12 00:11:37;;;;;;;2.57;0.43;;;3.60;99.90;;;;;;5018409;28;20802;-57
2021/04/12 00:14:09;;;;;;;3.60;0.80;;;3.50;99.90;;;;;;5009663;28;20196;-57
2021/04/12 00:16:39;;;;;;;5.43;0.90;;;3.50;99.90;;;;;;5018284;28;20192;-53
2021/04/12 00:19:15;;;;;;;5.20;1.00;;;3.50;99.90;;;;;;5009990;28;20219;-54
2021/04/12 00:21:47;;;;;;;1.03;0.63;;;3.40;99.90;;;;;;5021492;28;20454;-57
2021/04/12 00:24:17;;;;;;;2.43;0.80;;;3.40;99.90;;;;;;5020888;28;20212;-55
2021/04/12 00:26:48;;;;;;;1.87;0.90;;;3.40;99.90;;;;;;5019691;28;20417;-56
2021/04/12 00:29:21;;;;;;;1.97;0.50;;;3.40;99.90;;;;;;5021331;28;20219;-54
2021/04/12 00:31:52;;;;;;;2.53;0.67;;;3.40;99.90;;;;;;5020739;28;20207;-58
2021/04/12 00:34:23;;;;;;;3.20;0.90;;;3.30;99.90;;;;;;5015594;28;20222;-56
2021/04/12 00:36:54;;;;;;;2.03;0.83;;;3.30;99.90;;;;;;5017184;28;20345;-51
2021/04/12 00:39:28;;;;;;;3.03;0.80;;;3.30;99.90;;;;;;5017607;28;20754;-58
2021/04/12 00:42:07;;;;;;;2.47;0.70;;;3.30;99.90;;;;;;5016571;28;20545;-50
2021/04/12 00:45:06;;;;;;;1.73;1.00;;;3.30;99.90;;;;;;5018960;28;20192;-55
2021/04/12 00:47:43;;;;;;;3.33;0.80;;;3.30;99.90;;;;;;5021505;28;20231;-50
2021/04/12 00:50:27;;;;;;;2.93;0.70;;;3.20;99.90;;;;;;5008019;28;20245;-50
2021/04/12 00:53:27;;;;;;;2.13;0.80;;;3.20;99.90;;;;;;5025238;28;20688;-51
2021/04/12 00:55:56;;;;;;;2.40;1.03;;;3.20;99.90;;;;;;5021020;28;20295;-51
2021/04/12 00:58:35;;;;;;;6.83;0.80;;;3.10;99.90;;;;;;5029008;28;20334;-58
2021/04/12 01:01:12;;;;;;;3.53;0.90;;;3.10;99.90;;;;;;5011387;28;20587;-54
2021/04/12 01:04:02;;;;;;;2.20;0.67;;;3.10;99.90;;;;;;5022716;28;20399;-58
2021/04/12 01:06:47;;;;;;;0.53;0.53;;;3.00;99.90;;;;;;4989911;28;20204;-55
2021/04/12 01:09:42;;;;;;;2.97;0.90;;;3.00;99.90;;;;;;5022265;28;20254;-57
2021/04/12 01:12:38;;;;;;;3.10;1.10;;;3.00;99.90;;;;;;5020042;28;20251;-57
2021/04/12 01:15:36;;;;;;;4.00;0.90;;;2.90;99.90;;;;;;5025431;28;20260;-50
2021/04/12 01:18:48;;;;;;;1.70;0.80;;;2.90;99.90;;;;;;4990619;28;20214;-50
2021/04/12 01:21:53;;;;;;;1.33;0.80;;;2.90;99.90;;;;;;5016599;28;20226;-52
2021/04/12 01:24:57;;;;;;;4.67;0.73;;;2.90;99.90;;;;;;5011329;28;20579;-55
2021/04/12 01:28:01;;;;;;;2.67;0.83;;;2.80;99.90;;;;;;5025725;28;20229;-53
2021/04/12 01:31:16;;;;;;;1.73;0.90;;;2.90;99.90;;;;;;5021347;28;20317;-57
2021/04/12 01:34:17;;;;;;;3.17;0.80;;;2.80;99.90;;;;;;5018959;28;20207;-53
2021/04/12 01:36:52;;;;;;;1.93;0.60;;;2.80;99.90;;;;;;4991314;28;20220;-55
2021/04/12 01:39:43;;;;;;;5.10;0.73;;;2.80;99.90;;;;;;5010108;28;20231;-56
2021/04/12 01:42:25;;;;;;;2.87;1.20;;;2.80;99.90;;;;;;5028981;28;20214;-52
2021/04/12 01:44:55;;;;;;;4.73;0.93;;;2.80;99.90;;;;;;5023896;28;20616;-51
2021/04/12 01:47:47;;;;;;;4.43;0.90;;;2.70;99.90;;;;;;5016766;28;20274;-56
2021/04/12 01:50:23;;;;;;;1.57;0.60;;;2.70;99.90;;;;;;5022721;28;20273;-54
2021/04/12 01:53:20;;;;;;;4.93;0.80;;;2.70;99.90;;;;;;5023570;28;20889;-52
2021/04/12 01:56:12;;;;;;;2.17;0.70;;;2.70;99.90;;;;;;5014591;28;20827;-53
2021/04/12 01:58:47;;;;;;;3.80;0.70;;;2.70;99.90;;;;;;5020708;28;20230;-55
2021/04/12 02:01:44;;;;;;;4.73;0.80;;;2.60;99.90;;;;;;5017908;28;20211;-56
2021/04/12 02:04:20;;;;;;;0.70;0.70;;;2.60;99.90;;;;;;5022090;28;20216;-51
2021/04/12 02:07:08;;;;;;;2.83;0.80;;;2.60;99.90;;;;;;5021667;28;20222;-50
2021/04/12 02:09:46;;;;;;;3.37;0.83;;;2.50;99.90;;;;;;5007199;28;20237;-52
2021/04/12 02:12:32;;;;;;;4.13;1.00;;;2.50;99.90;;;;;;5033587;28;20195;-53
2021/04/12 02:15:10;;;;;;;2.77;0.90;;;2.50;99.90;;;;;;5024982;28;20290;-56
2021/04/12 02:17:53;;;;;;;3.50;1.07;;;2.50;99.90;;;;;;5018969;28;20314;-56
2021/04/12 02:20:25;;;;;;;5.40;1.07;;;2.50;99.90;;;;;;5018584;28;20687;-56
2021/04/12 02:23:12;;;;;;;1.83;0.90;;;2.40;99.90;;;;;;5023949;28;20250;-56
2021/04/12 02:25:59;;;;;;;5.37;1.30;;;2.40;99.90;;;;;;5008427;28;20496;-51
2021/04/12 02:28:46;;;;;;;2.07;0.87;;;2.40;99.90;;;;;;5019092;28;20215;-56
2021/04/12 02:31:30;;;;;;;1.83;1.00;;;2.40;99.90;;;;;;5025940;28;20252;-57
2021/04/12 02:34:00;;;;;;;1.80;0.80;;;2.40;99.90;;;;;;5024056;28;20255;-50
2021/04/12 02:36:37;;;;;;;1.30;1.07;;;2.40;99.90;;;;;;5014532;28;20203;-56
2021/04/12 02:39:09;;;;;;;3.53;0.90;;;2.40;99.90;;;;;;5023862;28;20684;-55
2021/04/12 02:41:49;;;;;;;6.90;1.33;;;2.30;99.90;;;;;;5006550;28;20226;-52
2021/04/12 02:44:40;;;;;;;3.23;0.90;;;2.30;99.90;;;;;;5026283;28;20581;-56
2021/04/12 02:47:21;;;;;;;3.07;0.90;;;2.30;99.90;;;;;;5020819;28;20228;-52
2021/04/12 02:49:58;;;;;;;2.77;1.00;;;2.30;99.90;;;;;;5022006;28;20230;-52
2021/04/12 02:52:32;;;;;;;1.83;0.80;;;2.30;99.90;;;;;;5021046;28;20204;-56
2021/04/12 02:55:30;;;;;;;2.57;0.70;;;2.30;99.90;;;;;;5023286;28;20676;-53
2021/04/12 02:58:38;;;;;;;4.93;1.00;;;2.20;99.90;;;;;;4936609;28;20299;-55
2021/04/12 03:01:27;;;;;;;2.00;0.90;;;2.20;99.90;;;;;;4986365;28;20242;-53
2021/04/12 03:04:05;;;;;;;2.97;0.97;;;2.20;99.90;;;;;;5023084;28;20214;-51
2021/04/12 03:07:01;;;;;;;1.47;1.00;;;2.10;99.90;;;;;;5018259;28;20225;-54
2021/04/12 03:09:45;;;;;;;2.30;0.70;;;2.10;99.90;;;;;;5016287;28;20738;-58
2021/04/12 03:12:44;;;;;;;2.40;1.30;;;2.10;99.90;;;;;;5011810;28;20211;-57
2021/04/12 03:15:36;;;;;;;1.53;0.70;;;2.10;99.90;;;;;;5006621;28;20205;-53
2021/04/12 03:18:15;;;;;;;1.80;1.00;;;2.10;99.90;;;;;;5016713;28;20210;-54
2021/04/12 03:21:15;;;;;;;2.17;0.93;;;2.10;99.90;;;;;;5022504;28;20258;-55
2021/04/12 03:23:51;;;;;;;4.63;1.30;;;2.10;99.90;;;;;;5020751;28;20298;-52
2021/04/12 03:26:42;;;;;;;1.30;0.90;;;2.00;99.90;;;;;;5019544;28;20635;-54
2021/04/12 03:29:21;;;;;;;1.77;0.97;;;2.00;99.90;;;;;;5008867;28;20431;-54
2021/04/12 03:32:25;;;;;;;4.10;1.30;;;2.00;99.90;;;;;;5027384;28;20197;-56
2021/04/12 03:35:03;;;;;;;3.23;1.13;;;2.00;99.90;;;;;;5021270;28;20227;-56
2021/04/12 03:37:49;;;;;;;1.80;0.90;;;2.00;99.90;;;;;;5023213;28;20289;-52
2021/04/12 03:40:25;;;;;;;5.50;1.10;;;2.00;99.90;;;;;;5019663;28;20462;-50
2021/04/12 03:43:27;;;;;;;5.13;1.30;;;1.90;99.90;;;;;;5007841;28;20210;-57
2021/04/12 03:46:19;;;;;;;5.43;1.20;;;1.90;99.90;;;;;;5020571;28;20201;-56
2021/04/12 03:48:56;;;;;;;6.00;1.43;;;1.90;99.90;;;;;;5022170;28;20199;-57
2021/04/12 03:51:43;;;;;;;7.20;1.70;;;1.80;99.90;;;;;;5025702;28;20420;-51
2021/04/12 03:54:27;;;;;;;2.43;1.57;;;1.80;99.90;;;;;;5018649;28;20199;-51
2021/04/12 03:57:14;;;;;;;1.03;0.73;;;1.80;99.90;;;;;;5020566;28;20208;-53
2021/04/12 03:59:57;;;;;;;4.37;0.90;;;1.80;99.90;;;;;;5017780;28;20241;-54
2021/04/12 04:02:39;;;;;;;2.17;1.00;;;1.80;99.90;;;;;;5013422;28;20205;-51
2021/04/12 04:05:28;;;;;;;7.63;1.13;;;1.80;99.90;;;;;;5018139;28;20499;-53
2021/04/12 04:08:19;;;;;;;3.30;1.10;;;1.80;99.90;;;;;;5014839;28;20667;-55
2021/04/12 04:11:16;;;;;;;4.37;1.30;;;1.70;99.90;;;;;;5022428;28;20245;-56
2021/04/12 04:13:56;;;;;;;2.03;1.10;;;1.70;99.90;;;;;;4991840;28;20277;-53
2021/04/12 04:16:34;;;;;;;4.73;1.00;;;1.70;99.90;;;;;;5019998;28;20382;-53
2021/04/12 04:19:05;;;;;;;5.30;1.20;;;1.70;99.90;;;;;;5012944;28;20738;-57
2021/04/12 04:22:24;;;;;;;7.23;1.03;;;1.70;99.90;;;;;;5022284;28;20219;-57
2021/04/12 04:25:14;;;;;;;2.80;0.90;;;1.70;99.90;;;;;;5005019;28;20214;-53
2021/04/12 04:28:10;;;;;;;3.83;1.17;;;1.70;99.90;;;;;;5022314;28;20279;-50
2021/04/12 04:31:04;;;;;;;5.87;1.43;;;1.70;99.90;;;;;;5008636;28;20603;-54
2021/04/12 04:33:42;;;;;;;4.53;1.20;;;1.70;99.90;;;;;;4971027;28;20229;-56
2021/04/12 04:36:42;;;;;;;4.13;1.33;;;1.70;99.90;;;;;;5017481;28;20205;-58
2021/04/12 04:39:36;;;;;;;4.07;1.37;;;1.70;99.90;;;;;;5000583;28;20819;-57
2021/04/12 04:42:25;;;;;;;4.23;1.33;;;1.70;99.90;;;;;;5009984;28;20217;-54
2021/04/12 04:45:03;;;;;;;6.70;1.97;;;1.70;99.90;;;;;;5009982;28;20218;-53
2021/04/12 04:47:53;;;;;;;2.97;1.30;;;1.70;99.90;;;;;;5023091;28;20201;-56
2021/04/12 04:50:52;;;;;;;4.67;1.20;;;1.70;99.90;;;;;;5009769;28;20232;-55
2021/04/12 04:53:35;;;;;;;4.57;1.30;;;1.70;99.90;;;;;;5007437;28;20228;-50
2021/04/12 04:56:15;;;;;;;4.43;1.30;;;1.70;99.90;;;;;;5012060;28;20709;-52
2021/04/12 04:58:56;;;;;;;1.70;1.30;;;1.70;99.90;;;;;;5014921;28;20293;-59
2021/04/12 05:01:55;;;;;;;8.93;1.70;;;1.70;99.90;;;;;;4991895;28;20218;-50
2021/04/12 05:05:04;;;;;;;2.57;1.20;;;1.70;99.90;;;;;;5021083;28;20206;-54
2021/04/12 05:07:48;;;;;;;7.93;1.57;;;1.70;99.90;;;;;;5016830;28;20209;-51
2021/04/12 05:10:41;;;;;;;11.20;1.67;;;1.70;99.90;;;;;;5014609;28;20230;-56
2021/04/12 05:13:14;;;;;;;7.07;1.83;;;1.80;99.90;;;;;;5009815;28;20851;-51
2021/04/12 05:16:06;;;;;;;5.27;1.63;;;1.80;99.90;;;;;;5020875;28;20282;-56
2021/04/12 05:18:58;;;;;;;5.33;1.67;;;1.80;99.90;;;;;;5011045;28;20306;-55
2021/04/12 05:21:45;;;;;;;5.10;1.87;;;1.90;99.90;;;;;;5020091;28;20224;-58
2021/04/12 05:24:36;;;;;;;1.80;1.60;;;1.90;99.90;;;;;;5019879;28;20386;-57
2021/04/12 05:27:26;;;;;;;4.80;1.80;;;2.00;99.90;;;;;;5017542;28;20495;-54
2021/04/12 05:30:22;;;;;;;4.07;1.63;;;2.00;99.90;;;;;;5013647;28;20224;-56
2021/04/12 05:32:59;;;;;;;5.07;2.07;;;2.10;99.90;;;;;;5012894;28;20211;-51
2021/04/12 05:35:45;;;;;;;5.97;1.87;;;2.10;99.90;;;;;;5024894;28;20281;-57
2021/04/12 05:38:25;;;;;;;7.97;2.63;;;2.20;99.90;;;;;;5023032;28;20291;-58
2021/04/12 05:41:02;;;;;;;2.63;1.73;;;2.20;99.90;;;;;;5010855;28;20269;-54
2021/04/12 05:44:02;;;;;;;4.93;1.60;;;2.20;99.90;;;;;;5024938;28;20229;-56
2021/04/12 05:46:51;;;;;;;2.60;1.77;;;2.30;99.90;;;;;;5021105;28;20218;-58
2021/04/12 05:49:54;;;;;;;3.57;2.00;;;2.40;99.90;;;;;;5031194;28;20230;-58
2021/04/12 05:52:48;;;;;;;4.50;2.07;;;2.40;99.90;;;;;;5019267;28;20762;-57
2021/04/12 05:55:23;;;;;;;5.23;1.70;;;2.50;99.90;;;;;;5023922;28;20196;-58
2021/04/12 05:58:25;;;;;;;6.93;2.17;;;2.60;99.90;;;;;;5017026;28;20210;-54
2021/04/12 06:01:00;;;;;;;4.67;1.60;;;2.60;99.90;;;;;;5017828;28;20299;-55
2021/04/12 06:03:42;;;;;;;9.13;2.00;;;2.70;99.90;;;;;;5012666;28;20210;-53
2021/04/12 06:06:39;;;;;;;4.00;1.87;;;2.70;99.90;;;;;;5020893;28;20289;-58
2021/04/12 06:09:50;;;;;;;6.70;1.87;;;2.70;99.90;;;;;;5021260;28;20388;-49
2021/04/12 06:12:48;;;;;;;4.03;1.60;;;2.80;99.90;;;;;;4937740;28;20788;-50
2021/04/12 06:16:08;;;;;;;7.40;1.80;;;2.90;99.90;;;;;;4937394;29;20861;-55
2021/04/12 06:18:59;;;;;;;4.87;2.03;;;2.90;99.90;;;;;;5007178;28;20204;-52
2021/04/12 06:21:50;;;;;;;8.00;2.07;;;3.00;99.90;;;;;;5028073;28;20223;-53
2021/04/12 06:24:39;;;;;;;4.17;1.77;;;3.00;99.90;;;;;;5018339;28;20659;-52
2021/04/12 06:27:40;;;;;;;2.00;1.50;;;3.10;99.90;;;;;;5015460;28;20441;-53
2021/04/12 06:30:43;;;;;;;3.07;1.93;;;3.20;99.90;;;;;;5016164;28;20429;-51
2021/04/12 06:33:31;;;;;;;3.10;1.70;;;3.30;99.90;;;;;;4971011;28;20211;-56
2021/04/12 06:36:26;;;;;;;9.33;1.70;;;3.30;99.90;;;;;;5007573;28;20208;-54
2021/04/12 06:39:30;;;;;;;7.30;1.80;;;3.40;99.90;;;;;;5014842;28;20212;-54
2021/04/12 06:42:17;;;;;;;8.73;1.40;;;3.50;99.90;;;;;;5012911;28;20408;-54
2021/04/12 06:45:19;;;;;;;3.40;1.93;;;3.70;99.90;;;;;;5021347;28;20202;-53
2021/04/12 06:48:19;;;;;;;3.73;1.40;;;3.80;99.90;;;;;;5011730;28;20198;-57
2021/04/12 06:51:19;;;;;;;4.33;1.67;;;4.00;99.90;;;;;;5007232;28;20302;-56
2021/04/12 06:54:22;;;;;;;4.80;1.43;;;4.10;99.90;;;;;;5018436;28;20208;-55
2021/04/12 06:57:34;;;;;;;5.27;1.50;;;4.20;99.90;;;;;;5025262;28;20195;-52
2021/04/12 07:00:37;;;;;;;4.87;1.80;;;4.30;99.90;;;;;;5015580;28;20296;-51
2021/04/12 07:04:02;;;;;;;6.53;1.60;;;4.30;99.90;;;;;;5018499;28;20312;-49
2021/04/12 07:07:07;;;;;;;6.10;1.90;;;4.50;99.90;;;;;;5010611;28;20199;-52
2021/04/12 07:09:46;;;;;;;6.13;2.10;;;4.50;99.90;;;;;;4939516;29;20323;-57
2021/04/12 07:12:57;;;;;;;4.13;1.63;;;4.50;99.90;;;;;;5010797;28;20219;-51
2021/04/12 07:15:58;;;;;;;3.60;1.33;;;4.50;99.90;;;;;;5020567;28;20207;-52
2021/04/12 07:19:04;;;;;;;4.60;1.17;;;4.60;99.90;;;;;;5018954;28;20191;-57
2021/04/12 07:22:07;;;;;;;2.63;1.63;;;4.70;99.90;;;;;;5009311;28;20220;-52
2021/04/12 07:25:12;;;;;;;6.87;1.50;;;4.70;99.90;;;;;;5022599;28;20196;-54
2021/04/12 07:28:19;;;;;;;3.50;1.43;;;4.70;99.90;;;;;;5020975;28;20286;-52
2021/04/12 07:31:29;;;;;;;4.37;1.57;;;4.80;99.90;;;;;;5014004;28;20628;-54
2021/04/12 07:34:10;;;;;;;4.73;1.83;;;4.90;99.90;;;;;;5019537;28;20279;-57
2021/04/12 07:37:14;;;;;;;10.93;1.73;;;5.10;99.90;;;;;;5008305;28;20226;-54
2021/04/12 07:40:13;;;;;;;9.00;1.67;;;5.20;99.90;;;;;;5021085;28;20224;-53
2021/04/12 07:43:25;;;;;;;2.63;0.97;;;5.20;99.90;;;;;;5020908;28;20198;-56
2021/04/12 07:46:25;;;;;;;7.10;1.60;;;5.30;99.90;;;;;;5013425;28;20810;-48
2021/04/12 07:49:28;;;;;;;4.67;1.30;;;5.40;99.90;;;;;;5018436;28;20579;-50
2021/04/12 07:52:31;;;;;;;3.13;1.30;;;5.50;99.90;;;;;;5006061;28;20341;-54
2021/04/12 07:55:28;;;;;;;5.40;1.40;;;5.60;99.90;;;;;;4988644;28;20303;-47
2021/04/12 07:58:37;;;;;;;2.43;1.53;;;5.80;99.90;;;;;;5001933;28;20207;-52
2021/04/12 08:01:21;;;;;;;2.87;1.30;;;5.90;99.90;;;;;;5016531;28;20317;-52
2021/04/12 08:04:05;;;;;;;8.97;1.27;;;5.90;99.90;;;;;;5019040;28;20281;-52
2021/04/12 08:07:17;;;;;;;4.40;1.40;;;5.90;99.90;;;;;;5020534;28;20207;-59
2021/04/12 08:10:21;;;;;;;7.10;1.13;;;6.00;99.90;;;;;;5024959;28;20215;-55
2021/04/12 08:13:24;;;;;;;4.83;1.30;;;6.10;99.90;;;;;;5016746;28;20206;-57
2021/04/12 08:16:33;;;;;;;9.00;1.53;;;6.10;99.90;;;;;;5012862;28;20716;-50
2021/04/12 08:19:14;;;;;;;4.07;1.13;;;6.20;99.90;;;;;;5014737;28;20807;-53
2021/04/12 08:22:15;;;;;;;3.20;1.00;;;6.20;99.90;;;;;;5013158;28;20222;-53
2021/04/12 08:24:55;;;;;;;2.83;1.00;;;6.10;99.90;;;;;;5018628;28;20207;-52
2021/04/12 08:28:07;;;;;;;11.90;1.50;;;6.10;99.90;;;;;;5022635;28;20208;-49
2021/04/12 08:31:23;;;;;;;5.00;1.87;;;6.20;99.90;;;;;;5021672;28;20223;-55
2021/04/12 08:34:34;;;;;;;3.63;1.13;;;6.40;99.90;;;;;;5011975;28;20333;-49
2021/04/12 08:37:31;;;;;;;2.07;0.70;;;6.60;99.90;;;;;;4979354;28;20453;-53
2021/04/12 08:40:24;;;;;;;6.33;1.23;;;6.70;99.90;;;;;;5008886;28;20429;-48
2021/04/12 08:43:25;;;;;;;2.47;0.80;;;6.80;99.90;;;;;;5013878;28;20321;-48
2021/04/12 08:46:27;;;;;;;6.13;1.30;;;6.80;99.90;;;;;;5018321;28;20279;-49
2021/04/12 08:49:31;;;;;;;3.63;1.20;;;6.70;99.90;;;;;;5012840;28;20199;-57
2021/04/12 08:52:57;;;;;;;4.13;0.93;;;6.70;99.90;;;;;;5018986;28;20214;-57
2021/04/12 08:55:46;;;;;;;4.00;0.80;;;6.70;99.90;;;;;;5011359;28;20208;-51
2021/04/12 08:58:49;;;;;;;3.27;1.10;;;6.80;99.90;;;;;;5016944;28;20200;-54
2021/04/12 09:01:51;;;;;;;2.00;0.87;;;6.80;99.90;;;;;;5021900;28;20219;-49
2021/04/12 09:04:58;;;;;;;4.23;0.80;;;6.90;99.90;;;;;;5017165;28;20203;-49
2021/04/12 09:07:42;;;;;;;5.53;1.27;;;7.00;99.90;;;;;;5010584;28;20220;-49
2021/04/12 09:10:35;;;;;;;4.37;0.80;;;7.20;99.90;;;;;;5011334;28;20420;-48
2021/04/12 09:13:38;;;;;;;3.70;0.80;;;7.10;99.90;;;;;;5023579;28;20227;-51
2021/04/12 09:16:17;;;;;;;3.67;0.90;;;7.10;99.90;;;;;;5023690;28;20217;-48
2021/04/12 09:19:21;;;;;;;5.57;1.17;;;7.10;99.90;;;;;;5019120;28;20204;-51
2021/04/12 09:22:11;;;;;;;3.97;0.70;;;7.00;99.90;;;;;;5021671;28;20226;-50
2021/04/12 09:25:11;;;;;;;2.33;0.80;;;6.80;99.90;;;;;;5013820;28;20215;-49
2021/04/12 09:27:50;;;;;;;1.67;1.10;;;6.80;99.90;;;;;;5023638;28;20202;-50
2021/04/12 09:30:51;;;;;;;3.03;1.03;;;7.00;99.90;;;;;;5020941;28;20257;-57
2021/04/12 09:33:30;;;;;;;2.70;0.70;;;;;;;;;;5025620;28;20199;-49
2021/04/12 09:36:41;;;;;;;3.30;1.07;;;7.40;99.90;;;;;;5011775;28;20199;-48
2021/04/12 09:39:41;;;;;;;3.77;0.70;;;7.50;99.90;;;;;;5023929;28;20246;-50
2021/04/12 09:42:47;;;;;;;5.30;0.90;;;7.60;99.90;;;;;;4915139;29;20357;-48
2021/04/12 09:46:11;;;;;;;1.60;0.53;;;7.90;99.90;;;;;;5025031;28;20199;-49
2021/04/12 09:49:14;;;;;;;2.60;0.93;;;7.80;99.90;;;;;;5023328;28;20195;-56
2021/04/12 09:52:05;;;;;;;4.80;0.83;;;7.70;99.90;;;;;;5017790;28;20294;-53
2021/04/12 09:55:10;;;;;;;2.03;1.07;;;7.60;99.90;;;;;;4991364;28;20277;-50
2021/04/12 09:58:12;;;;;;;4.20;0.70;;;7.80;99.90;;;;;;5011407;28;20498;-51
2021/04/12 10:00:54;;;;;;;1.93;0.73;;;7.90;99.90;;;;;;5021310;28;20212;-51
2021/04/12 10:03:57;;;;;;;0.43;0.37;;;8.00;99.90;;;;;;5025112;28;20214;-50
2021/04/12 10:06:52;;;;;;;3.20;0.53;;;7.80;99.90;;;;;;5019886;28;20204;-51
2021/04/12 10:09:34;;;;;;;1.63;0.50;;;7.30;99.90;;;;;;5024524;28;20228;-50
2021/04/12 10:12:20;;;;;;;2.20;0.67;;;7.00;99.90;;;;;;5003362;28;20429;-51
2021/04/12 10:14:52;;;;;;;1.83;0.57;;;6.80;99.90;;;;;;5021290;28;20257;-54
2021/04/12 10:17:25;;;;;;;2.93;0.83;;;6.70;99.90;;;;;;5024057;28;20246;-54
2021/04/12 10:19:54;;;;;;;1.57;0.67;;;6.60;99.90;;;;;;5020061;28;20494;-50
2021/04/12 10:22:30;;;;;;;2.33;1.00;;;6.30;99.90;;;;;;5019593;28;20587;-48
2021/04/12 10:24:59;;;;;;;1.17;0.40;;;6.30;99.90;;;;;;5014757;28;20397;-49
2021/04/12 10:27:32;;;;;;;3.43;0.70;;;6.40;99.90;;;;;;5007880;28;20258;-51
2021/04/12 10:30:09;;;;;;;1.93;1.20;;;6.50;99.90;;;;;;5021113;28;20247;-50
2021/04/12 10:32:43;;;;;;;3.27;0.70;;;6.90;99.90;;;;;;5024427;28;20186;-55
2021/04/12 10:35:13;;;;;;;2.97;0.67;;;7.10;99.90;;;;;;5026709;28;20611;-50
2021/04/12 10:37:46;;;;;;;1.77;0.70;;;7.10;99.90;;;;;;5017284;28;20285;-54
2021/04/12 10:40:24;;;;;;;2.10;0.67;;;7.00;99.90;;;;;;5023848;28;20214;-55
2021/04/12 10:42:59;;;;;;;0.80;0.70;;;6.80;99.90;;;;;;5009378;28;20289;-54
2021/04/12 10:45:29;;;;;;;3.67;0.60;;;6.60;99.90;;;;;;5023628;28;20219;-54
2021/04/12 10:48:00;;;;;;;4.23;0.50;;;6.30;99.90;;;;;;5020221;28;20858;-55
2021/04/12 10:50:35;;;;;;;4.63;0.47;;;5.80;99.90;;;;;;5024094;28;20314;-55
2021/04/12 10:53:35;;;;;;;3.17;0.60;;;5.30;99.90;;;;;;5016358;28;20394;-53
2021/04/12 10:56:06;;;;;;;0.70;0.50;;;4.80;99.90;;;;;;5020129;28;20414;-57
2021/04/12 10:58:52;;;;;;;1.13;0.70;;;4.60;99.90;;;;;;5008677;28;20334;-52
2021/04/12 11:01:30;;;;;;;2.87;0.50;;;4.40;99.90;;;;;;5034402;28;20293;-55
2021/04/12 11:04:08;;;;;;;0.93;0.40;;;4.10;99.90;;;;;;5018212;28;20282;-51
2021/04/12 11:06:54;;;;;;;1.00;0.50;;;4.00;99.90;;;;;;5022527;28;20278;-53
2021/04/12 11:09:34;;;;;;;2.60;0.73;;;4.00;99.90;;;;;;5018647;28;20224;-47
2021/04/12 11:12:08;;;;;;;1.13;0.60;;;4.00;99.90;;;;;;5020883;28;20584;-49
2021/04/12 11:14:42;;;;;;;2.30;0.60;;;4.00;99.90;;;;;;5020721;28;20207;-54
2021/04/12 11:17:15;;;;;;;4.37;0.83;;;4.00;99.90;;;;;;5026641;28;20394;-55
2021/04/12 11:19:49;;;;;;;1.70;0.43;;;4.10;99.90;;;;;;5020717;28;20222;-54
2021/04/12 11:22:34;;;;;;;2.57;0.80;;;4.30;99.90;;;;;;5019042;28;20219;-51
2021/04/12 11:25:06;;;;;;;6.37;1.10;;;4.30;99.90;;;;;;5011661;28;20757;-48
2021/04/12 11:27:56;;;;;;;2.53;0.53;;;4.40;99.90;;;;;;5020069;28;20626;-51
2021/04/12 11:30:28;;;;;;;2.60;1.17;;;4.50;99.90;;;;;;5005592;28;20227;-49
2021/04/12 11:33:07;;;;;;;1.03;0.83;;;4.60;99.90;;;;;;5012689;28;20266;-56
2021/04/12 11:35:40;;;;;;;0.80;0.80;;;4.60;99.90;;;;;;5022314;28;20245;-51
2021/04/12 11:38:11;;;;;;;4.57;1.37;;;4.60;99.90;;;;;;5021846;28;20204;-57
2021/04/12 11:40:49;;;;;;;2.70;1.00;;;4.70;99.90;;;;;;5019844;28;20227;-55
2021/04/12 11:43:22;;;;;;;2.77;1.00;;;4.80;99.90;;;;;;5008360;28;20286;-57
2021/04/12 11:45:53;;;;;;;1.87;0.70;;;4.90;99.90;;;;;;5015328;28;20197;-51
2021/04/12 11:48:27;;;;;;;3.27;0.90;;;5.00;99.90;;;;;;5021741;28;20653;-56
2021/04/12 11:51:02;;;;;;;2.50;0.83;;;5.30;99.90;;;;;;5018001;28;20207;-56
2021/04/12 11:53:39;;;;;;;4.17;1.03;;;5.50;99.90;;;;;;5019691;28;20209;-49
2021/04/12 11:56:14;;;;;;;1.70;0.80;;;5.80;99.90;;;;;;5016140;28;20203;-54
2021/04/12 11:58:44;;;;;;;2.37;0.70;;;5.90;99.90;;;;;;5012732;28;20203;-53
2021/04/12 12:01:19;;;;;;;1.40;0.80;;;6.00;99.90;;;;;;5023733;28;20238;-49
2021/04/12 12:04:03;;;;;;;1.57;0.70;;;6.10;99.90;;;;;;5020801;28;20631;-54
2021/04/12 12:06:44;;;;;;;1.67;0.90;;;6.10;99.90;;;;;;5022838;28;20279;-53
2021/04/12 12:09:21;;;;;;;1.47;0.70;;;6.30;99.90;;;;;;5017082;28;20227;-53
2021/04/12 12:11:58;;;;;;;1.60;0.80;;;6.50;99.90;;;;;;5014404;28;20690;-56
2021/04/12 12:14:32;;;;;;;2.20;0.77;;;6.70;99.90;;;;;;5008179;28;20590;-54
2021/04/12 12:16:59;;;;;;;4.63;1.00;;;6.80;99.90;;;;;;5020053;28;20265;-55
2021/04/12 12:19:36;;;;;;;1.30;1.17;;;6.80;99.90;;;;;;5022549;28;20219;-49
2021/04/12 12:22:08;;;;;;;4.70;1.17;;;6.80;99.90;;;;;;5013834;28;20222;-47
2021/04/12 12:24:42;;;;;;;2.53;0.90;;;6.70;99.90;;;;;;5021577;28;20704;-53
2021/04/12 12:27:11;;;;;;;2.90;0.70;;;6.70;99.90;;;;;;5021512;28;20424;-48
2021/04/12 12:29:39;;;;;;;1.30;0.67;;;6.70;99.90;;;;;;4991179;28;20763;-59
2021/04/12 12:32:38;;;;;;;1.93;1.03;;;6.80;99.90;;;;;;5020479;28;20792;-50
2021/04/12 12:35:25;;;;;;;1.63;1.33;;;7.00;99.90;;;;;;5003963;28;20211;-54
2021/04/12 12:38:10;;;;;;;3.67;1.20;;;7.10;99.90;;;;;;5018029;28;20433;-55
2021/04/12 12:40:45;;;;;;;1.13;0.93;;;7.20;99.90;;;;;;5021770;28;20223;-53
2021/04/12 12:43:17;;;;;;;2.87;0.90;;;7.40;99.90;;;;;;5020489;28;20206;-56
2021/04/12 12:45:44;;;;;;;2.33;1.00;;;7.50;99.90;;;;;;5010370;28;20208;-57
2021/04/12 12:48:17;;;;;;;2.10;1.07;;;7.70;99.90;;;;;;5026949;28;20612;-49
2021/04/12 12:50:46;;;;;;;1.47;0.90;;;7.70;99.90;;;;;;5021647;28;20219;-57
2021/04/12 12:53:16;;;;;;;0.67;0.67;;;7.70;99.90;;;;;;5020176;28;20204;-51
2021/04/12 12:55:47;;;;;;;1.90;0.93;;;7.80;99.90;;;;;;5023423;28;20207;-57
2021/04/12 12:58:21;;;;;;;3.20;1.07;;;7.90;99.90;;;;;;5021261;28;20778;-49
2021/04/12 13:00:51;;;;;;;1.80;0.40;;;7.90;99.90;;;;;;5010086;28;20279;-59
2021/04/12 13:03:21;;;;;;;3.33;0.73;;;8.00;99.90;;;;;;5035655;28;20207;-50
2021/04/12 13:05:50;;;;;;;1.00;0.40;;;8.00;99.90;;;;;;5021872;28;20238;-57
2021/04/12 13:08:23;;;;;;;2.10;0.80;;;8.20;99.90;;;;;;5025666;28;20631;-48
2021/04/12 13:10:50;;;;;;;3.27;1.00;;;8.10;99.30;;;;;;5021191;28;20586;-55
2021/04/12 13:13:23;;;;;;;4.33;0.60;;;8.10;99.90;;;;;;5019735;28;20207;-55
2021/04/12 13:15:50;;;;;;;2.47;0.60;;;8.30;98.80;;;;;;5009968;28;20211;-55
2021/04/12 13:18:31;;;;;;;0.63;0.50;;;9.10;97.30;;;;;;5023383;28;20203;-53
2021/04/12 13:21:08;;;;;;;3.43;1.00;;;9.20;93.20;;;;;;5022005;28;20341;-56
2021/04/12 13:23:55;;;;;;;1.77;0.70;;;9.70;92.50;;;;;;5024370;28;20279;-51
2021/04/12 13:26:29;;;;;;;1.03;0.50;;;9.90;91.40;;;;;;5025310;28;20681;-53
2021/04/12 13:28:57;;;;;;;0.90;0.40;;;10.50;90.40;;;;;;5015849;28;20843;-54
2021/04/12 13:31:36;;;;;;;1.90;0.70;;;10.40;84.70;;;;;;5012594;28;20208;-57
2021/04/12 13:34:07;;;;;;;1.10;0.50;;;10.20;73.30;;;;;;5023479;28;20188;-53
2021/04/12 13:36:38;;;;;;;3.80;0.73;;;10.40;77.10;;;;;;5017749;28;20583;-49
2021/04/12 13:39:11;;;;;;;0.63;0.40;;;11.00;77.90;;;;;;5016972;28;20441;-54
2021/04/12 13:41:45;;;;;;;0.67;0.67;;;11.30;71.60;;;;;;5023315;28;20265;-54
2021/04/12 13:44:13;;;;;;;3.23;0.70;;;11.30;71.10;;;;;;5019369;28;20204;-56
2021/04/12 13:46:53;;;;;;;0.73;0.50;;;11.30;78.10;;;;;;5015913;28;20290;-53
2021/04/12 13:49:23;;;;;;;0.87;0.60;;;10.90;75.80;;;;;;5027376;28;20719;-53
2021/04/12 13:51:55;;;;;;;2.67;0.83;;;10.50;81.80;;;;;;5019617;28;20399;-54
2021/04/12 13:54:26;;;;;;;2.33;0.40;;;11.00;82.90;;;;;;5025061;28;20231;-48
2021/04/12 13:56:55;;;;;;;1.03;0.50;;;11.00;77.60;;;;;;5020551;28;20223;-48
2021/04/12 13:59:25;;;;;;;1.57;0.63;;;10.70;79.30;;;;;;5023995;28;20620;-48
2021/04/12 14:01:54;;;;;;;2.40;0.97;;;10.80;82.10;;;;;;5002894;28;20227;-48
2021/04/12 14:04:24;;;;;;;1.50;0.70;;;11.10;81.00;;;;;;5025074;28;20616;-49
2021/04/12 14:06:59;;;;;;;2.60;0.73;;;10.90;80.80;;;;;;5013831;28;20392;-48
2021/04/12 14:09:32;;;;;;;1.37;0.70;;;10.50;80.10;;;;;;5025566;28;20226;-48
2021/04/12 14:12:01;;;;;;;0.50;0.50;;;10.10;85.80;;;;;;5025836;28;20204;-48
2021/04/12 14:14:31;;;;;;;3.33;0.70;;;9.70;87.50;;;;;;5024918;28;20255;-50
2021/04/12 14:17:03;;;;;;;2.37;0.97;;;9.40;90.50;;;;;;5016506;28;20211;-49
2021/04/12 14:19:35;;;;;;;3.30;0.93;;;9.10;91.00;;;;;;5017733;28;20231;-51
2021/04/12 14:22:11;;;;;;;1.43;0.50;;;8.90;92.90;;;;;;5024971;28;20412;-49
2021/04/12 14:24:42;;;;;;;4.27;0.93;;;8.70;94.30;;;;;;5022224;28;20204;-52
2021/04/12 14:27:15;;;;;;;2.43;0.87;;;8.50;95.70;;;;;;5023638;28;20583;-48
2021/04/12 14:29:48;;;;;;;1.23;0.70;;;8.50;98.00;;;;;;5021587;28;20245;-56
2021/04/12 14:32:19;;;;;;;4.70;0.80;;;8.60;97.60;;;;;;5013577;28;20572;-47
2021/04/12 14:34:50;;;;;;;2.00;0.70;;;8.60;98.10;;;;;;5007129;28;20739;-56